createdAt,value
2023-01-03T00:01:58.968Z,100664.59
2023-01-03T00:04:25.496Z,100660.22
2023-01-03T00:06:53.927Z,100663.75
2023-01-03T00:09:23.121Z,100661.19
2023-01-03T00:12:09.909Z,100661.19
2023-01-03T00:14:38.723Z,100663.81
2023-01-03T00:17:06.962Z,100676.06
2023-01-03T00:19:36.246Z,100670.88
2023-01-03T00:22:03.569Z,100671.78
2023-01-03T00:24:30.121Z,100670.03
2023-01-03T00:26:56.622Z,100676.19
2023-01-03T00:29:23.044Z,100675.34
2023-01-03T00:31:49.817Z,100684.16
2023-01-03T00:34:16.544Z,100685.94
2023-01-03T00:36:43.071Z,100685.97
2023-01-03T00:39:11.784Z,100687.72
2023-01-03T00:41:39.168Z,100687.78
2023-01-03T00:44:06.318Z,100690.44
2023-01-03T00:46:33.899Z,100686.16
2023-01-03T00:49:00.898Z,100687.91
2023-01-03T00:51:31.655Z,100687.97
2023-01-03T00:53:59.736Z,100693.25
2023-01-03T00:56:29.065Z,100698.47
2023-01-03T00:58:56.075Z,100691.53
2023-01-03T01:01:28.336Z,100699.38
2023-01-03T01:03:59.803Z,100689.78
2023-01-03T01:06:32.122Z,100688.81
2023-01-03T01:09:00.197Z,100689.59
2023-01-03T01:11:28.015Z,100691.28
2023-01-03T01:13:55.177Z,100695.59
2023-01-03T01:16:27.427Z,100687.78
2023-01-03T01:18:54.555Z,100698.16
2023-01-03T01:21:23.749Z,100696.44
2023-01-03T01:23:50.842Z,100699.06
2023-01-03T01:26:19.582Z,100701.69
2023-01-03T01:28:47.835Z,100706.03
2023-01-03T01:31:16.985Z,100709.50
2023-01-03T01:33:43.901Z,100716.44
2023-01-03T01:36:16.153Z,100721.63
2023-01-03T01:38:42.845Z,100721.47
2023-01-03T01:41:13.742Z,100722.28
2023-01-03T01:44:17.655Z,100715.22
2023-01-03T01:46:44.700Z,100722.84
2023-01-03T01:49:20.297Z,100735.00
2023-01-03T01:51:47.195Z,100737.41
2023-01-03T01:54:13.882Z,100735.56
2023-01-03T01:56:44.392Z,100734.59
2023-01-03T01:59:12.179Z,100736.28
2023-01-03T02:01:40.028Z,100740.63
2023-01-03T02:04:19.278Z,100734.50
2023-01-03T02:06:45.910Z,100747.56
2023-01-03T02:09:12.514Z,100748.50
2023-01-03T02:12:14.811Z,100753.88
2023-01-03T02:14:59.475Z,100757.28
2023-01-03T02:17:41.253Z,100754.66
2023-01-03T02:20:31.891Z,100758.16
2023-01-03T02:23:01.327Z,100757.28
2023-01-03T02:25:36.726Z,100750.16
2023-01-03T02:28:09.374Z,100749.28
2023-01-03T02:30:37.820Z,100750.06
2023-01-03T02:33:18.188Z,100757.06
2023-01-03T02:36:06.564Z,100754.41
2023-01-03T02:38:48.356Z,100760.41
2023-01-03T02:41:33.493Z,100761.19
2023-01-03T02:44:25.819Z,100766.47
2023-01-03T02:47:04.518Z,100775.97
2023-01-03T02:49:38.213Z,100785.53
2023-01-03T02:52:09.905Z,100777.63
2023-01-03T02:54:43.909Z,100781.97
2023-01-03T02:57:17.706Z,100780.22
2023-01-03T03:00:00.725Z,100792.41
2023-01-03T03:02:34.690Z,100786.16
2023-01-03T03:05:05.556Z,100784.34
2023-01-03T03:07:35.625Z,100779.97
2023-01-03T03:10:21.726Z,100789.53
2023-01-03T03:13:09.951Z,100788.66
2023-01-03T03:15:59.524Z,100780.81
2023-01-03T03:18:52.794Z,100788.78
2023-01-03T03:21:39.476Z,100784.25
2023-01-03T03:24:39.790Z,100788.66
2023-01-03T03:27:31.112Z,100784.25
2023-01-03T03:30:02.706Z,100786.78
2023-01-03T03:32:31.980Z,100785.03
2023-01-03T03:35:01.934Z,100777.13
2023-01-03T03:37:31.380Z,100771.88
2023-01-03T03:40:16.483Z,100774.50
2023-01-03T03:43:14.861Z,100775.41
2023-01-03T03:45:44.164Z,100779.91
2023-01-03T03:49:01.556Z,100781.00
2023-01-03T03:51:32.637Z,100782.75
2023-01-03T03:54:03.441Z,100785.53
2023-01-03T03:56:32.565Z,100775.09
2023-01-03T03:59:05.301Z,100783.94
2023-01-03T04:01:33.867Z,100784.78
2023-01-03T04:04:05.945Z,100783.97
2023-01-03T04:06:47.756Z,100789.34
2023-01-03T04:09:14.629Z,100789.34
2023-01-03T04:11:41.345Z,100789.47
2023-01-03T04:14:08.134Z,100790.50
2023-01-03T04:16:34.787Z,100798.41
2023-01-03T04:19:01.250Z,100795.88
2023-01-03T04:21:27.780Z,100802.09
2023-01-03T04:23:54.354Z,100803.06
2023-01-03T04:26:21.155Z,100805.78
2023-01-03T04:28:47.693Z,100804.13
2023-01-03T04:31:14.308Z,100804.16
2023-01-03T04:33:40.815Z,100804.19
2023-01-03T04:36:07.814Z,100800.75
2023-01-03T04:38:34.289Z,100795.50
2023-01-03T04:41:08.931Z,100798.16
2023-01-03T04:43:54.280Z,100792.84
2023-01-03T04:46:21.512Z,100799.88
2023-01-03T04:48:48.299Z,100805.13
2023-01-03T04:51:15.326Z,100810.41
2023-01-03T04:53:41.958Z,100814.84
2023-01-03T04:56:08.652Z,100814.09
2023-01-03T04:58:35.326Z,100816.91
2023-01-03T05:01:08.125Z,100814.47
2023-01-03T05:03:34.802Z,100811.09
2023-01-03T05:06:03.018Z,100809.41
2023-01-03T05:08:29.933Z,100806.94
2023-01-03T05:10:56.504Z,100805.38
2023-01-03T05:13:23.343Z,100809.00
2023-01-03T05:15:50.221Z,100807.38
2023-01-03T05:18:17.236Z,100808.38
2023-01-03T05:21:03.509Z,100818.91
2023-01-03T05:23:48.400Z,100813.81
2023-01-03T05:26:18.298Z,100818.28
2023-01-03T05:28:48.199Z,100825.38
2023-01-03T05:31:14.760Z,100823.69
2023-01-03T05:33:41.696Z,100822.06
2023-01-03T05:36:09.606Z,100829.13
2023-01-03T05:38:37.858Z,100824.84
2023-01-03T05:41:05.263Z,100831.84
2023-01-03T05:43:31.753Z,100831.88
2023-01-03T05:45:58.459Z,100839.84
2023-01-03T05:48:25.195Z,100838.09
2023-01-03T05:50:52.206Z,100844.25
2023-01-03T05:53:18.763Z,100843.44
2023-01-03T05:55:45.442Z,100839.06
2023-01-03T05:58:12.572Z,100839.13
2023-01-03T06:00:39.497Z,100847.00
2023-01-03T06:03:06.437Z,100842.66
2023-01-03T06:05:32.964Z,100841.78
2023-01-03T06:08:01.960Z,100849.69
2023-01-03T06:10:28.914Z,100853.19
2023-01-03T06:12:55.793Z,100850.59
2023-01-03T06:15:22.373Z,100848.88
2023-01-03T06:17:55.027Z,100853.22
2023-01-03T06:20:21.584Z,100862.78
2023-01-03T06:22:48.095Z,100859.28
2023-01-03T06:25:14.783Z,100860.13
2023-01-03T06:27:41.379Z,100860.91
2023-01-03T06:30:08.639Z,100849.59
2023-01-03T06:32:35.202Z,100853.91
2023-01-03T06:35:01.799Z,100858.25
2023-01-03T06:37:28.281Z,100860.81
2023-01-03T06:39:54.858Z,100861.66
2023-01-03T06:42:39.560Z,100867.75
2023-01-03T06:45:25.462Z,100873.75
2023-01-03T06:48:10.353Z,100874.59
2023-01-03T06:50:58.185Z,100871.97
2023-01-03T06:53:26.832Z,100878.91
2023-01-03T06:55:57.117Z,100875.44
2023-01-03T06:58:24.107Z,100886.78
2023-01-03T07:00:54.709Z,100892.03
2023-01-03T07:03:22.019Z,100889.44
2023-01-03T07:05:49.072Z,100892.03
2023-01-03T07:08:15.720Z,100891.16
2023-01-03T07:10:42.347Z,100887.75
2023-01-03T07:13:27.506Z,100885.13
2023-01-03T07:15:54.259Z,100878.16
2023-01-03T07:18:20.996Z,100872.06
2023-01-03T07:20:47.613Z,100879.13
2023-01-03T07:23:14.310Z,100886.13
2023-01-03T07:25:43.970Z,100875.72
2023-01-03T07:28:12.420Z,100886.31
2023-01-03T07:30:41.081Z,100890.72
2023-01-03T07:33:12.021Z,100891.69
2023-01-03T07:35:38.634Z,100895.19
2023-01-03T07:38:06.421Z,100896.97
2023-01-03T07:40:33.177Z,100896.97
2023-01-03T07:43:18.437Z,100903.94
2023-01-03T07:45:46.190Z,100898.66
2023-01-03T07:48:13.770Z,100903.84
2023-01-03T07:50:41.430Z,100898.56
2023-01-03T07:53:08.885Z,100903.78
2023-01-03T07:55:37.051Z,100905.47
2023-01-03T07:58:03.822Z,100901.06
2023-01-03T08:00:30.771Z,100903.66
2023-01-03T08:02:57.355Z,100899.22
2023-01-03T08:05:25.171Z,100900.88
2023-01-03T08:07:52.696Z,100899.97
2023-01-03T08:10:38.407Z,100894.72
2023-01-03T08:13:18.188Z,100895.59
2023-01-03T08:15:53.131Z,100895.63
2023-01-03T08:18:22.490Z,100901.78
2023-01-03T08:20:49.866Z,100905.22
2023-01-03T08:23:16.363Z,100902.69
2023-01-03T08:25:43.002Z,100911.38
2023-01-03T08:28:10.909Z,100917.50
2023-01-03T08:30:49.518Z,100903.59
2023-01-03T08:33:18.433Z,100904.38
2023-01-03T08:35:55.882Z,100907.94
2023-01-03T08:38:27.408Z,100904.41
2023-01-03T08:40:55.348Z,100913.16
2023-01-03T08:43:22.133Z,100916.59
2023-01-03T08:45:49.149Z,100915.81
2023-01-03T08:48:19.388Z,100916.63
2023-01-03T08:50:46.060Z,100901.84
2023-01-03T08:53:12.549Z,100906.16
2023-01-03T08:58:28.437Z,100905.22
2023-01-03T09:00:54.808Z,100901.75
2023-01-03T09:03:21.286Z,100910.44
2023-01-03T09:05:47.745Z,100900.81
2023-01-03T09:08:14.180Z,100901.66
2023-01-03T09:10:47.156Z,100901.59
2023-01-03T09:13:14.253Z,100901.53
2023-01-03T09:15:40.747Z,100899.81
2023-01-03T09:18:07.639Z,100905.88
2023-01-03T09:20:34.215Z,100908.47
2023-01-03T09:26:39.746Z,100906.69
2023-01-03T09:29:06.332Z,100910.19
2023-01-03T09:31:39.955Z,100904.09
2023-01-03T09:34:06.844Z,100898.88
2023-01-03T09:36:34.631Z,100901.44
2023-01-03T09:39:01.147Z,100902.28
2023-01-03T09:41:28.415Z,100910.13
2023-01-03T09:44:02.694Z,100901.38
2023-01-03T09:46:30.944Z,100912.63
2023-01-03T09:48:57.846Z,100913.41
2023-01-03T09:51:49.156Z,100908.09
2023-01-03T09:54:41.244Z,100914.09
2023-01-03T09:57:54.069Z,100910.50
2023-01-03T10:00:54.406Z,100906.75
2023-01-03T10:03:50.234Z,100910.13
2023-01-03T10:06:35.254Z,100906.50
2023-01-03T10:09:15.547Z,100901.13
2023-01-03T10:11:59.603Z,100888.75
2023-01-03T10:14:29.191Z,100886.84
2023-01-03T10:17:14.575Z,100897.22
2023-01-03T10:19:50.273Z,100896.94
2023-01-03T10:22:20.803Z,100893.31
2023-01-03T10:24:51.033Z,100903.63
2023-01-03T10:27:22.067Z,100886.81
2023-01-03T10:30:01.075Z,100890.13
2023-01-03T10:32:41.240Z,100888.19
2023-01-03T10:35:24.778Z,100879.13
2023-01-03T10:37:53.566Z,100878.00
2023-01-03T10:40:21.683Z,100876.00
2023-01-03T10:42:50.292Z,100880.13
2023-01-03T10:45:21.245Z,100879.09
2023-01-03T10:48:01.277Z,100872.84
2023-01-03T10:50:29.442Z,100883.00
2023-01-03T10:53:00.362Z,100881.03
2023-01-03T10:55:28.294Z,100881.72
2023-01-03T10:58:21.135Z,100868.47
2023-01-03T11:00:48.263Z,100872.56
2023-01-03T11:03:16.660Z,100864.63
2023-01-03T11:05:46.497Z,100873.38
2023-01-03T11:08:35.086Z,100863.84
2023-01-03T11:11:01.764Z,100855.84
2023-01-03T11:13:28.417Z,100858.53
2023-01-03T11:15:56.880Z,100859.38
2023-01-03T11:18:27.702Z,100857.63
2023-01-03T11:21:18.255Z,100852.41
2023-01-03T11:24:03.942Z,100860.22
2023-01-03T11:26:43.843Z,100853.13
2023-01-03T11:29:16.383Z,100858.25
2023-01-03T11:32:01.640Z,100846.84
2023-01-03T11:35:20.780Z,100847.59
2023-01-03T11:37:53.543Z,100836.81
2023-01-03T11:40:33.644Z,100827.78
2023-01-03T11:43:40.018Z,100837.13
2023-01-03T11:46:31.894Z,100837.72
2023-01-03T11:49:13.761Z,100828.63
2023-01-03T11:51:58.498Z,100824.97
2023-01-03T11:54:53.529Z,100826.81
2023-01-03T11:57:45.742Z,100818.94
2023-01-03T12:00:22.183Z,100824.97
2023-01-03T12:03:07.091Z,100826.81
2023-01-03T12:05:42.984Z,100817.16
2023-01-03T12:08:12.542Z,100812.75
2023-01-03T12:10:57.358Z,100815.34
2023-01-03T12:14:01.377Z,100821.66
2023-01-03T12:16:43.852Z,100819.91
2023-01-03T12:19:28.651Z,100822.41
2023-01-03T12:22:18.172Z,100820.78
2023-01-03T12:25:05.964Z,100810.19
2023-01-03T12:27:36.352Z,100813.72
2023-01-03T12:30:28.148Z,100823.47
2023-01-03T12:33:13.045Z,100812.97
2023-01-03T12:35:49.362Z,100805.16
2023-01-03T12:38:18.561Z,100813.03
2023-01-03T12:40:54.448Z,100813.09
2023-01-03T12:43:33.951Z,100812.22
2023-01-03T12:46:12.926Z,100820.16
2023-01-03T12:49:02.624Z,100816.78
2023-01-03T12:51:30.138Z,100812.31
2023-01-03T12:53:59.500Z,100816.84
2023-01-03T12:56:34.765Z,100801.06
2023-01-03T12:59:16.287Z,100806.34
2023-01-03T13:01:54.431Z,100802.91
2023-01-03T13:04:38.807Z,100803.81
2023-01-03T13:07:14.355Z,100808.91
2023-01-03T13:10:01.208Z,100809.19
2023-01-03T13:12:32.006Z,100805.53
2023-01-03T13:15:33.328Z,100805.69
2023-01-03T13:18:20.694Z,100810.91
2023-01-03T13:20:54.126Z,100798.53
2023-01-03T13:23:37.072Z,100798.69
2023-01-03T13:26:04.817Z,100799.50
2023-01-03T13:28:36.182Z,100793.47
2023-01-03T13:31:14.734Z,100799.69
2023-01-03T13:33:57.948Z,100789.19
2023-01-03T13:36:24.959Z,100790.78
2023-01-03T13:38:51.803Z,100797.72
2023-01-03T13:41:38.819Z,100797.84
2023-01-03T13:44:23.457Z,100794.22
2023-01-03T13:46:51.271Z,100792.28
2023-01-03T13:49:24.213Z,100795.78
2023-01-03T13:51:54.743Z,100793.94
2023-01-03T13:54:21.217Z,100786.81
2023-01-03T13:56:47.678Z,100787.59
2023-01-03T13:59:14.123Z,100770.00
2023-01-03T14:01:52.647Z,100779.66
2023-01-03T14:05:00.683Z,100776.09
2023-01-03T14:07:47.814Z,100775.13
2023-01-03T14:10:48.324Z,100774.13
2023-01-03T14:13:40.963Z,100776.69
2023-01-03T14:16:25.589Z,100781.84
2023-01-03T14:19:30.503Z,100779.22
2023-01-03T14:22:31.346Z,100783.50
2023-01-03T14:24:58.915Z,100782.41
2023-01-03T14:27:40.718Z,100786.03
2023-01-03T14:30:28.397Z,100787.72
2023-01-03T14:32:54.989Z,100791.03
2023-01-03T14:35:34.612Z,100792.00
2023-01-03T14:38:06.457Z,100793.56
2023-01-03T14:40:33.851Z,100799.66
2023-01-03T14:43:04.688Z,100790.06
2023-01-03T14:45:31.143Z,100796.13
2023-01-03T14:47:58.011Z,100796.94
2023-01-03T14:50:30.008Z,100787.38
2023-01-03T14:52:58.777Z,100796.09
2023-01-03T14:55:28.699Z,100791.66
2023-01-03T15:00:36.411Z,100790.75
2023-01-03T15:03:04.279Z,100784.59
2023-01-03T15:05:40.706Z,100788.13
2023-01-03T15:08:22.378Z,100778.56
2023-01-03T15:10:56.870Z,100782.00
2023-01-03T15:13:31.051Z,100775.88
2023-01-03T15:16:01.725Z,100778.50
2023-01-03T15:18:31.844Z,100778.50
2023-01-03T15:21:00.036Z,100784.66
2023-01-03T15:23:47.252Z,100779.59
2023-01-03T15:26:23.729Z,100783.88
2023-01-03T15:28:50.210Z,100787.28
2023-01-03T15:31:34.568Z,100780.41
2023-01-03T15:34:18.282Z,100781.97
2023-01-03T15:36:54.753Z,100778.50
2023-01-03T15:39:24.863Z,100783.72
2023-01-03T15:42:43.568Z,100776.75
2023-01-03T15:45:16.028Z,100771.53
2023-01-03T15:47:43.701Z,100765.25
2023-01-03T15:50:14.290Z,100774.13
2023-01-03T15:52:41.214Z,100770.63
2023-01-03T15:55:09.322Z,100773.25
2023-01-03T15:57:35.888Z,100764.53
2023-01-03T16:00:04.376Z,100768.91
2023-01-03T16:02:31.928Z,100768.00
2023-01-03T16:04:58.516Z,100757.53
2023-01-03T16:07:26.464Z,100756.63
2023-01-03T16:09:52.992Z,100757.41
2023-01-03T16:12:32.925Z,100755.78
2023-01-03T16:14:59.961Z,100752.06
2023-01-03T16:17:28.581Z,100752.06
2023-01-03T16:19:57.581Z,100747.78
2023-01-03T16:22:34.371Z,100747.72
2023-01-03T16:25:01.363Z,100739.00
2023-01-03T16:27:27.824Z,100750.44
2023-01-03T16:29:55.122Z,100752.28
2023-01-03T16:32:27.138Z,100750.66
2023-01-03T16:35:12.236Z,100756.19
2023-01-03T16:37:38.738Z,100754.31
2023-01-03T16:40:06.913Z,100753.53
2023-01-03T16:42:33.388Z,100756.19
2023-01-03T16:44:59.892Z,100756.19
2023-01-03T16:47:33.164Z,100750.25
2023-01-03T16:50:04.519Z,100739.78
2023-01-03T16:52:37.739Z,100738.97
2023-01-03T16:55:20.600Z,100738.28
2023-01-03T16:57:53.596Z,100736.53
2023-01-03T17:00:23.361Z,100741.88
2023-01-03T17:02:50.229Z,100746.34
2023-01-03T17:05:17.003Z,100742.91
2023-01-03T17:07:46.587Z,100748.28
2023-01-03T17:10:29.538Z,100746.69
2023-01-03T17:12:57.940Z,100746.69
2023-01-03T17:15:24.559Z,100747.59
2023-01-03T17:17:51.342Z,100738.97
2023-01-03T17:20:19.605Z,100744.28
2023-01-03T17:22:57.712Z,100743.59
2023-01-03T17:25:24.965Z,100736.63
2023-01-03T17:27:59.159Z,100742.91
2023-01-03T17:30:27.930Z,100739.41
2023-01-03T17:32:55.350Z,100742.09
2023-01-03T17:35:22.596Z,100743.94
2023-01-03T17:38:23.927Z,100737.06
2023-01-03T17:40:36.597Z,100735.34
2023-01-03T17:43:03.105Z,100732.78
2023-01-03T17:45:48.512Z,100727.56
2023-01-03T17:48:33.741Z,100730.31
2023-01-03T17:51:01.774Z,100728.69
2023-01-03T17:53:29.464Z,100717.44
2023-01-03T17:55:56.205Z,100725.34
2023-01-03T17:58:37.112Z,100719.44
2023-01-03T18:01:05.849Z,100722.81
2023-01-03T18:03:32.492Z,100726.31
2023-01-03T18:06:03.633Z,100728.94
2023-01-03T18:08:30.125Z,100725.38
2023-01-03T18:10:56.990Z,100725.38
2023-01-03T18:13:32.185Z,100730.63
2023-01-03T18:15:58.988Z,100734.06
2023-01-03T18:18:27.407Z,100720.13
2023-01-03T18:20:54.515Z,100717.56
2023-01-03T18:23:37.722Z,100721.19
2023-01-03T18:26:08.410Z,100708.94
2023-01-03T18:28:34.913Z,100707.91
2023-01-03T18:31:01.609Z,100712.41
2023-01-03T18:33:28.187Z,100708.13
2023-01-03T18:35:54.995Z,100707.31
2023-01-03T18:38:29.429Z,100693.50
2023-01-03T18:41:03.997Z,100698.63
2023-01-03T18:43:32.060Z,100691.66
2023-01-03T18:45:58.669Z,100696.91
2023-01-03T18:48:25.303Z,100701.25
2023-01-03T18:50:58.797Z,100687.34
2023-01-03T18:53:48.449Z,100684.75
2023-01-03T18:56:22.164Z,100683.09
2023-01-03T18:58:56.584Z,100673.34
2023-01-03T19:01:29.788Z,100672.50
2023-01-03T19:03:57.837Z,100663.81
2023-01-03T19:06:34.344Z,100663.84
2023-01-03T19:09:03.954Z,100655.13
2023-01-03T19:11:34.225Z,100656.03
2023-01-03T19:14:02.590Z,100654.25
2023-01-03T19:16:32.384Z,100643.81
2023-01-03T19:18:59.954Z,100643.81
2023-01-03T19:21:32.073Z,100640.41
2023-01-03T19:24:04.706Z,100649.25
2023-01-03T19:26:33.745Z,100641.31
2023-01-03T19:29:03.670Z,100644.03
2023-01-03T19:31:41.110Z,100643.22
2023-01-03T19:34:15.457Z,100630.97
2023-01-03T19:36:42.257Z,100631.75
2023-01-03T19:39:09.605Z,100630.06
2023-01-03T19:42:01.384Z,100631.88
2023-01-03T19:44:27.917Z,100626.59
2023-01-03T19:46:54.542Z,100617.84
2023-01-03T19:49:21.554Z,100613.47
2023-01-03T19:51:48.380Z,100610.88
2023-01-03T19:54:15.347Z,100603.78
2023-01-03T19:56:42.167Z,100598.50
2023-01-03T19:59:31.308Z,100588.09
2023-01-03T20:02:24.001Z,100592.22
2023-01-03T20:04:45.081Z,100586.91
2023-01-03T20:07:14.924Z,100573.84
2023-01-03T20:09:41.540Z,100580.81
2023-01-03T20:12:14.690Z,100567.72
2023-01-03T20:14:43.035Z,100563.28
2023-01-03T20:17:22.721Z,100570.34
2023-01-03T20:19:49.525Z,100563.25
2023-01-03T20:22:45.014Z,100562.38
2023-01-03T20:25:04.285Z,100556.25
2023-01-03T20:27:30.880Z,100551.91
2023-01-03T20:29:57.408Z,100562.41
2023-01-03T20:32:24.855Z,100554.69
2023-01-03T20:34:51.493Z,100550.31
2023-01-03T20:37:20.710Z,100550.31
2023-01-03T20:39:47.397Z,100542.44
2023-01-03T20:42:24.960Z,100547.00
2023-01-03T20:44:51.681Z,100545.25
2023-01-03T20:47:23.571Z,100542.69
2023-01-03T20:49:50.887Z,100535.66
2023-01-03T20:52:18.689Z,100531.31
2023-01-03T20:54:45.316Z,100529.59
2023-01-03T20:59:51.011Z,100513.06
2023-01-03T21:02:17.561Z,100490.47
2023-01-03T21:04:44.413Z,100490.53
2023-01-03T21:07:48.575Z,100489.91
2023-01-03T21:10:25.199Z,100486.31
2023-01-03T21:12:51.705Z,100494.13
2023-01-03T21:15:18.290Z,100488.94
2023-01-03T21:17:50.499Z,100487.22
2023-01-03T21:20:21.017Z,100485.50
2023-01-03T21:22:47.893Z,100499.53
2023-01-03T21:25:19.507Z,100508.38
2023-01-03T21:27:46.147Z,100508.38
2023-01-03T21:30:13.847Z,100500.56
2023-01-03T21:32:40.362Z,100511.91
2023-01-03T21:35:09.540Z,100504.94
2023-01-03T21:37:36.060Z,100495.41
2023-01-03T21:40:02.578Z,100491.09
2023-01-03T21:42:47.353Z,100494.63
2023-01-03T21:45:14.265Z,100490.38
2023-01-03T21:47:40.709Z,100491.28
2023-01-03T21:50:08.053Z,100483.41
2023-01-03T21:52:34.792Z,100474.72
2023-01-03T21:55:01.326Z,100477.50
2023-01-03T21:57:27.926Z,100472.25
2023-01-03T21:59:54.411Z,100469.63
2023-01-03T22:02:43.798Z,100451.25
2023-01-03T22:05:10.588Z,100433.78
2023-01-03T22:07:37.026Z,100428.59
2023-01-03T22:10:19.261Z,100429.50
2023-01-03T22:12:56.940Z,100428.66
2023-01-03T22:15:24.780Z,100433.00
2023-01-03T22:17:52.499Z,100433.03
2023-01-03T22:20:24.825Z,100425.28
2023-01-03T22:22:51.983Z,100417.41
2023-01-03T22:25:21.477Z,100414.84
2023-01-03T22:27:48.456Z,100414.84
2023-01-03T22:30:17.631Z,100415.72
2023-01-03T22:32:44.545Z,100409.59
2023-01-03T22:35:12.982Z,100413.13
2023-01-03T22:37:39.718Z,100422.84
2023-01-03T22:40:08.130Z,100401.91
2023-01-03T22:42:34.800Z,100403.63
2023-01-03T22:45:01.222Z,100402.69
2023-01-03T22:47:28.357Z,100391.38
2023-01-03T22:49:55.106Z,100401.81
2023-01-03T22:52:21.698Z,100400.03
2023-01-03T22:54:48.220Z,100391.31
2023-01-03T22:57:14.758Z,100401.72
2023-01-03T22:59:41.353Z,100396.47
2023-01-03T23:02:08.286Z,100382.56
2023-01-03T23:04:34.946Z,100386.91
2023-01-03T23:07:01.471Z,100379.03
2023-01-03T23:09:28.295Z,100367.72
2023-01-03T23:12:27.297Z,100366.84
2023-01-03T23:14:53.811Z,100363.34
2023-01-03T23:17:38.925Z,100348.53
2023-01-03T23:20:05.925Z,100352.03
2023-01-03T23:22:32.387Z,100349.41
2023-01-03T23:24:58.893Z,100336.22
2023-01-03T23:27:27.358Z,100327.50
2023-01-03T23:29:54.821Z,100316.09
2023-01-03T23:32:21.408Z,100316.09
2023-01-03T23:34:47.997Z,100314.28
2023-01-03T23:37:14.602Z,100310.78
2023-01-03T23:39:41.060Z,100311.66
2023-01-03T23:42:07.604Z,100299.38
2023-01-03T23:44:34.129Z,100290.56
2023-01-03T23:47:02.242Z,100277.41
2023-01-03T23:49:31.459Z,100283.47
2023-01-03T23:51:57.917Z,100266.84
2023-01-03T23:54:24.381Z,100258.94
2023-01-03T23:56:50.870Z,100258.00
2023-01-03T23:59:17.461Z,100246.63
